createdAt,value
2022-11-04T00:05:02.683Z,97879.69
2022-11-04T00:10:07.033Z,97881.84
2022-11-04T00:15:10.862Z,97880.47
2022-11-04T00:20:14.379Z,97878.81
2022-11-04T00:25:18.061Z,97872.59
2022-11-04T00:30:21.519Z,97872.59
2022-11-04T00:35:28.615Z,97869.34
2022-11-04T00:40:32.743Z,97869.63
2022-11-04T00:45:36.972Z,97869.03
2022-11-04T00:50:40.361Z,97858.22
2022-11-04T00:55:43.845Z,97862.81
2022-11-04T01:00:47.211Z,97864.41
2022-11-04T01:05:50.530Z,97865.50
2022-11-04T01:10:54.071Z,97866.31
2022-11-04T01:16:05.526Z,97870.94
2022-11-04T01:21:12.176Z,97865.78
2022-11-04T01:26:24.027Z,97859.25
2022-11-04T01:31:29.825Z,97858.44
2022-11-04T01:36:33.242Z,97870.31
2022-11-04T01:41:36.689Z,97861.66
2022-11-04T01:46:47.276Z,97857.34
2022-11-04T01:51:54.884Z,97848.09
2022-11-04T01:57:03.272Z,97841.56
2022-11-04T02:02:08.056Z,97854.53
2022-11-04T02:07:12.568Z,97849.38
2022-11-04T02:12:16.246Z,97843.66
2022-11-04T02:17:19.803Z,97843.09
2022-11-04T02:22:40.046Z,97837.66
2022-11-04T02:28:02.699Z,97847.91
2022-11-04T02:33:17.984Z,97845.69
2022-11-04T02:38:36.222Z,97850.00
2022-11-04T02:43:52.482Z,97852.13
2022-11-04T02:49:08.455Z,97850.50
2022-11-04T02:54:20.371Z,97849.94
2022-11-04T02:59:45.097Z,97847.00
2022-11-04T03:04:51.944Z,97848.06
2022-11-04T03:10:01.229Z,97849.63
2022-11-04T03:15:14.101Z,97850.97
2022-11-04T03:20:22.790Z,97855.56
2022-11-04T03:25:31.300Z,97860.13
2022-11-04T03:30:44.669Z,97867.72
2022-11-04T03:35:57.630Z,97867.97
2022-11-04T03:41:03.359Z,97863.88
2022-11-04T03:46:06.889Z,97870.94
2022-11-04T03:51:10.374Z,97869.09
2022-11-04T03:56:32.287Z,97872.91
2022-11-04T04:01:50.668Z,97882.09
2022-11-04T04:07:03.239Z,97878.59
2022-11-04T04:12:16.090Z,97884.06
2022-11-04T04:17:48.240Z,97893.53
2022-11-04T04:23:08.666Z,97892.22
2022-11-04T04:28:15.238Z,97894.97
2022-11-04T04:33:20.338Z,97896.13
2022-11-04T04:38:26.180Z,97904.28
2022-11-04T04:43:29.678Z,97911.59
2022-11-04T04:48:35.918Z,97914.13
2022-11-04T04:53:43.175Z,97923.91
2022-11-04T04:58:47.085Z,97936.97
2022-11-04T05:03:50.745Z,97940.03
2022-11-04T05:08:53.626Z,97930.91
2022-11-04T05:13:58.182Z,97943.72
2022-11-04T05:19:01.386Z,97948.13
2022-11-04T05:24:04.951Z,97957.97
2022-11-04T05:29:10.105Z,97969.19
2022-11-04T05:34:14.568Z,97966.09
2022-11-04T05:39:18.420Z,97966.84
2022-11-04T05:44:22.064Z,97973.31
2022-11-04T05:49:25.623Z,97976.03
2022-11-04T05:54:28.941Z,97981.44
2022-11-04T05:59:32.166Z,97986.09
2022-11-04T06:04:35.446Z,97987.78
2022-11-04T06:09:38.700Z,97996.50
2022-11-04T06:14:43.057Z,97997.03
2022-11-04T06:19:47.072Z,98002.47
2022-11-04T06:24:50.577Z,97998.94
2022-11-04T06:29:54.476Z,97990.25
2022-11-04T06:35:13.649Z,97994.34
2022-11-04T06:40:20.755Z,97986.34
2022-11-04T06:45:24.041Z,97988.44
2022-11-04T06:50:28.045Z,97982.97
2022-11-04T06:55:31.454Z,97998.81
2022-11-04T07:00:34.623Z,98001.28
2022-11-04T07:05:37.910Z,98002.16
2022-11-04T07:10:41.922Z,98003.00
2022-11-04T07:15:46.302Z,98000.56
2022-11-04T07:20:49.612Z,98003.00
2022-11-04T07:25:53.081Z,98001.09
2022-11-04T07:30:58.168Z,98006.53
2022-11-04T07:36:11.223Z,98003.00
2022-11-04T07:41:15.223Z,98011.94
2022-11-04T07:46:19.995Z,97993.41
2022-11-04T07:51:26.532Z,98002.06
2022-11-04T07:56:34.389Z,97985.72
2022-11-04T08:01:37.908Z,97984.06
2022-11-04T08:06:41.402Z,97984.56
2022-11-04T08:11:45.165Z,97985.03
2022-11-04T08:16:50.919Z,97977.44
2022-11-04T08:21:54.534Z,97976.06
2022-11-04T08:26:57.832Z,97966.41
2022-11-04T08:32:02.871Z,97965.91
2022-11-04T08:37:13.269Z,97966.19
2022-11-04T08:42:16.476Z,97963.41
2022-11-04T08:47:19.767Z,97953.50
2022-11-04T08:52:23.132Z,97947.06
2022-11-04T08:57:26.527Z,97943.31
2022-11-04T09:02:29.907Z,97939.63
2022-11-04T09:07:33.471Z,97936.50
2022-11-04T09:12:37.279Z,97926.94
2022-11-04T09:17:41.204Z,97925.28
2022-11-04T09:22:45.953Z,97916.13
2022-11-04T09:27:49.670Z,97920.03
2022-11-04T09:32:53.154Z,97912.53
2022-11-04T09:37:56.419Z,97904.41
2022-11-04T09:43:14.946Z,97897.41
2022-11-04T09:48:42.190Z,97893.41
2022-11-04T09:53:47.970Z,97885.63
2022-11-04T09:58:54.607Z,97874.25
2022-11-04T10:04:03.721Z,97872.34
2022-11-04T10:09:39.221Z,97872.13
2022-11-04T10:14:48.956Z,97870.47
2022-11-04T10:19:55.519Z,97862.03
2022-11-04T10:25:14.180Z,97857.13
2022-11-04T10:30:23.968Z,97853.88
2022-11-04T10:36:05.960Z,97847.66
2022-11-04T10:41:24.805Z,97838.72
2022-11-04T10:46:48.988Z,97837.09
2022-11-04T10:51:57.116Z,97828.06
2022-11-04T10:57:02.757Z,97829.97
2022-11-04T11:02:06.847Z,97818.56
2022-11-04T11:07:13.170Z,97813.91
2022-11-04T11:12:48.714Z,97804.91
2022-11-04T11:17:40.186Z,97815.50
2022-11-04T11:22:46.162Z,97809.56
2022-11-04T11:27:58.575Z,97803.88
2022-11-04T11:33:03.541Z,97805.00
2022-11-04T11:38:19.033Z,97792.00
2022-11-04T11:43:32.285Z,97797.44
2022-11-04T11:48:44.185Z,97793.34
2022-11-04T11:54:07.673Z,97795.84
2022-11-04T12:10:52.008Z,97790.09
2022-11-04T12:16:13.780Z,97791.69
2022-11-04T12:21:26.860Z,97792.00
2022-11-04T12:27:04.709Z,97788.16
2022-11-04T12:32:17.195Z,97790.09
2022-11-04T12:37:23.448Z,97779.16
2022-11-04T12:42:38.789Z,97766.94
2022-11-04T12:47:45.466Z,97769.44
2022-11-04T12:53:27.484Z,97778.09
2022-11-04T12:58:36.620Z,97788.22
2022-11-04T13:03:51.023Z,97789.06
2022-11-04T13:09:17.748Z,97793.72
2022-11-04T13:14:26.910Z,97787.50
2022-11-04T13:19:34.292Z,97786.72
2022-11-04T13:24:49.386Z,97782.41
2022-11-04T13:30:17.768Z,97792.81
2022-11-04T13:35:33.198Z,97794.75
2022-11-04T13:40:50.232Z,97785.50
2022-11-04T13:45:56.023Z,97794.78
2022-11-04T13:51:13.434Z,97790.75
2022-11-04T13:56:45.841Z,97796.22
2022-11-04T14:01:49.046Z,97801.44
2022-11-04T14:07:01.734Z,97794.13
2022-11-04T14:12:11.044Z,97799.34
2022-11-04T14:17:33.095Z,97801.53
2022-11-04T14:22:38.094Z,97800.47
2022-11-04T14:27:41.765Z,97803.25
2022-11-04T14:32:45.279Z,97808.44
2022-11-04T14:37:55.898Z,97813.06
2022-11-04T14:43:00.255Z,97817.97
2022-11-04T14:48:18.459Z,97811.19
2022-11-04T14:53:37.418Z,97801.97
2022-11-04T14:59:02.191Z,97807.94
2022-11-04T15:04:31.806Z,97805.19
2022-11-04T15:09:41.515Z,97805.44
2022-11-04T15:14:45.189Z,97811.94
2022-11-04T15:19:52.541Z,97809.50
2022-11-04T15:24:57.139Z,97803.25
2022-11-04T15:30:03.617Z,97811.13
2022-11-04T15:35:13.255Z,97815.13
2022-11-04T15:40:17.499Z,97818.41
2022-11-04T15:45:28.752Z,97819.19
2022-11-04T15:50:32.162Z,97823.50
2022-11-04T15:55:37.879Z,97824.81
2022-11-04T16:00:43.526Z,97827.81
2022-11-04T16:06:02.503Z,97829.97
2022-11-04T16:11:19.016Z,97838.63
2022-11-04T16:16:28.014Z,97833.75
2022-11-04T16:21:35.357Z,97833.44
2022-11-04T16:26:42.032Z,97841.31
2022-11-04T16:31:45.338Z,97836.13
2022-11-04T16:36:48.494Z,97838.28
2022-11-04T16:41:52.041Z,97838.56
2022-11-04T16:46:55.999Z,97840.72
2022-11-04T16:52:03.302Z,97850.19
2022-11-04T16:57:06.964Z,97838.25
2022-11-04T17:02:36.726Z,97837.16
2022-11-04T17:07:52.892Z,97843.66
2022-11-04T17:12:58.849Z,97845.25
2022-11-04T17:18:02.301Z,97840.66
2022-11-04T17:23:05.653Z,97840.09
2022-11-04T17:28:08.939Z,97829.25
2022-11-04T17:33:17.521Z,97830.31
2022-11-04T17:38:21.423Z,97835.97
2022-11-04T17:43:25.869Z,97834.94
2022-11-04T17:48:29.180Z,97834.66
2022-11-04T17:53:32.283Z,97827.03
2022-11-04T17:58:35.304Z,97826.47
2022-11-04T18:03:38.940Z,97826.47
2022-11-04T18:08:42.541Z,97828.91
2022-11-04T18:13:45.792Z,97826.47
2022-11-04T18:18:49.528Z,97823.22
2022-11-04T18:23:54.611Z,97835.38
2022-11-04T18:28:58.625Z,97836.72
2022-11-04T18:34:06.871Z,97839.97
2022-11-04T18:39:13.837Z,97842.34
2022-11-04T18:44:19.598Z,97833.13
2022-11-04T18:49:22.915Z,97831.75
2022-11-04T18:54:25.795Z,97833.34
2022-11-04T18:59:29.066Z,97842.81
2022-11-04T19:04:33.359Z,97842.00
2022-11-04T19:09:46.645Z,97844.63
2022-11-04T19:14:50.981Z,97851.13
2022-11-04T19:19:54.229Z,97842.19
2022-11-04T19:24:57.788Z,97843.56
2022-11-04T19:30:01.049Z,97847.34
2022-11-04T19:35:09.058Z,97841.94
2022-11-04T19:40:14.722Z,97829.75
2022-11-04T19:45:18.654Z,97834.09
2022-11-04T19:50:22.486Z,97836.53
2022-11-04T19:55:25.855Z,97836.88
2022-11-04T20:00:33.187Z,97845.78
2022-11-04T20:05:38.738Z,97841.94
2022-11-04T20:10:43.353Z,97835.16
2022-11-04T20:15:46.941Z,97837.88
2022-11-04T20:20:50.396Z,97837.28
2022-11-04T20:25:53.746Z,97846.75
2022-11-04T20:30:56.936Z,97840.47
2022-11-04T20:36:03.313Z,97844.28
2022-11-04T20:41:09.374Z,97833.41
2022-11-04T20:46:21.493Z,97835.03
2022-11-04T20:51:28.206Z,97840.72
2022-11-04T20:56:33.945Z,97841.47
2022-11-04T21:01:43.882Z,97841.75
2022-11-04T21:06:50.036Z,97834.97
2022-11-04T21:11:53.549Z,97838.22
2022-11-04T21:16:59.173Z,97834.72
2022-11-04T21:22:05.133Z,97831.22
2022-11-04T21:27:11.794Z,97830.69
2022-11-04T21:32:15.079Z,97829.06
2022-11-04T21:37:18.066Z,97833.94
2022-11-04T21:42:21.301Z,97838.50
2022-11-04T21:47:24.327Z,97831.75
2022-11-04T21:52:28.002Z,97836.34
2022-11-04T21:57:31.553Z,97839.84
2022-11-04T22:02:37.521Z,97840.63
2022-11-04T22:07:41.485Z,97845.16
2022-11-04T22:12:50.976Z,97841.34
2022-11-04T22:17:55.017Z,97842.97
2022-11-04T22:22:58.681Z,97845.69
2022-11-04T22:28:01.987Z,97845.94
2022-11-04T22:33:05.403Z,97858.66
2022-11-04T22:38:08.443Z,97854.50
2022-11-04T22:43:12.638Z,97843.97
2022-11-04T22:48:16.366Z,97851.00
2022-11-04T22:53:19.692Z,97852.59
2022-11-04T22:58:22.961Z,97848.00
2022-11-04T23:03:26.329Z,97851.50
2022-11-04T23:08:31.009Z,97845.84
2022-11-04T23:13:34.301Z,97849.88
2022-11-04T23:18:37.909Z,97842.00
2022-11-04T23:23:41.199Z,97843.41
2022-11-04T23:28:44.458Z,97843.66
2022-11-04T23:33:47.941Z,97840.38
2022-11-04T23:38:51.464Z,97835.25
2022-11-04T23:43:55.496Z,97835.78
2022-11-04T23:48:59.006Z,97833.06
2022-11-04T23:54:02.257Z,97831.47
2022-11-04T23:59:05.689Z,97832.00
